createdAt,value
2019-06-10T00:02:07.331Z,24.10
2019-06-10T00:04:37.313Z,24.00
2019-06-10T00:07:07.458Z,23.90
2019-06-10T00:09:37.579Z,23.90
2019-06-10T00:12:08.177Z,23.90
2019-06-10T00:14:41.658Z,23.80
2019-06-10T00:17:11.104Z,23.80
2019-06-10T00:19:41.096Z,23.70
2019-06-10T00:22:11.863Z,23.80
2019-06-10T00:24:41.989Z,23.70
2019-06-10T00:27:12.118Z,23.70
2019-06-10T00:29:42.042Z,23.60
2019-06-10T00:32:13.219Z,23.60
2019-06-10T00:34:43.438Z,23.80
2019-06-10T00:37:14.680Z,23.70
2019-06-10T00:39:44.818Z,23.80
2019-06-10T00:42:15.340Z,23.90
2019-06-10T00:44:45.346Z,23.70
2019-06-10T00:47:15.523Z,23.70
2019-06-10T00:49:45.671Z,23.70
2019-06-10T00:52:15.543Z,23.70
2019-06-10T00:54:45.442Z,23.70
2019-06-10T00:57:15.298Z,23.90
2019-06-10T00:59:45.244Z,23.90
2019-06-10T01:02:15.196Z,23.80
2019-06-10T01:04:45.326Z,23.80
2019-06-10T01:07:15.143Z,23.90
2019-06-10T01:09:45.066Z,23.90
2019-06-10T01:12:15.145Z,24.00
2019-06-10T01:14:45.167Z,24.00
2019-06-10T01:17:15.526Z,24.00
2019-06-10T01:19:45.696Z,23.90
2019-06-10T01:22:16.013Z,23.90
2019-06-10T01:24:47.091Z,23.70
2019-06-10T01:27:18.043Z,23.70
2019-06-10T01:29:48.061Z,23.80
2019-06-10T01:32:17.846Z,23.80
2019-06-10T01:34:47.581Z,23.80
2019-06-10T01:37:17.708Z,23.80
2019-06-10T01:39:47.688Z,23.90
2019-06-10T01:42:17.579Z,24.00
2019-06-10T01:44:47.486Z,24.00
2019-06-10T01:47:17.660Z,23.90
2019-06-10T01:49:47.624Z,23.70
2019-06-10T01:52:18.376Z,23.60
2019-06-10T01:54:48.351Z,23.60
2019-06-10T01:57:18.640Z,23.50
2019-06-10T01:59:50.694Z,23.50
2019-06-10T02:02:23.833Z,23.50
2019-06-10T02:04:53.958Z,23.60
2019-06-10T02:07:24.443Z,23.70
2019-06-10T02:09:54.222Z,23.70
2019-06-10T02:12:24.400Z,23.70
2019-06-10T02:14:54.568Z,23.70
2019-06-10T02:17:24.427Z,23.50
2019-06-10T02:19:54.403Z,23.50
2019-06-10T02:22:24.638Z,23.40
2019-06-10T02:24:54.790Z,23.30
2019-06-10T02:27:24.626Z,23.40
2019-06-10T02:29:54.436Z,23.40
2019-06-10T02:32:31.656Z,23.40
2019-06-10T02:35:08.095Z,23.40
2019-06-10T02:37:32.113Z,23.40
2019-06-10T02:39:58.833Z,23.40
2019-06-10T02:42:36.384Z,23.40
2019-06-10T02:45:09.141Z,23.20
2019-06-10T02:47:38.997Z,23.20
2019-06-10T02:50:14.282Z,23.30
2019-06-10T02:52:44.328Z,23.30
2019-06-10T02:55:15.605Z,23.30
2019-06-10T02:57:45.301Z,23.30
2019-06-10T03:00:24.729Z,23.40
2019-06-10T03:02:47.356Z,23.50
2019-06-10T03:05:19.589Z,23.30
2019-06-10T03:07:48.772Z,23.20
2019-06-10T03:10:21.113Z,23.10
2019-06-10T03:12:50.074Z,23.00
2019-06-10T03:15:24.508Z,22.90
2019-06-10T03:17:53.488Z,22.80
2019-06-10T03:20:25.856Z,22.90
2019-06-10T03:22:54.921Z,23.10
2019-06-10T03:25:26.089Z,23.20
2019-06-10T03:27:56.331Z,23.30
2019-06-10T03:30:37.442Z,23.30
2019-06-10T03:32:57.677Z,23.30
2019-06-10T03:35:28.506Z,23.20
2019-06-10T03:37:58.540Z,23.20
2019-06-10T03:40:28.322Z,23.10
2019-06-10T03:42:58.217Z,23.10
2019-06-10T03:45:28.551Z,23.10
2019-06-10T03:47:58.593Z,23.10
2019-06-10T03:50:28.731Z,23.20
2019-06-10T03:53:01.042Z,23.20
2019-06-10T03:55:30.131Z,23.30
2019-06-10T03:58:02.215Z,23.30
2019-06-10T04:00:32.709Z,23.30
2019-06-10T04:03:02.909Z,23.30
2019-06-10T04:05:33.190Z,23.40
2019-06-10T04:08:03.074Z,23.50
2019-06-10T04:10:32.964Z,23.50
2019-06-10T04:13:02.779Z,23.50
2019-06-10T04:15:32.754Z,23.50
2019-06-10T04:18:03.931Z,23.30
2019-06-10T04:20:34.145Z,23.50
2019-06-10T04:23:04.024Z,23.50
2019-06-10T04:25:33.843Z,23.50
2019-06-10T04:28:03.794Z,23.60
2019-06-10T04:30:33.587Z,23.70
2019-06-10T04:33:03.424Z,23.80
2019-06-10T04:35:33.676Z,23.90
2019-06-10T04:38:03.709Z,23.80
2019-06-10T04:40:33.552Z,23.50
2019-06-10T04:43:03.459Z,23.60
2019-06-10T04:45:33.321Z,23.60
2019-06-10T04:48:03.248Z,23.60
2019-06-10T04:50:41.502Z,23.70
2019-06-10T04:53:04.630Z,23.70
2019-06-10T04:55:34.487Z,23.70
2019-06-10T04:58:04.343Z,23.80
2019-06-10T05:00:34.150Z,23.80
2019-06-10T05:03:03.989Z,23.90
2019-06-10T05:05:33.908Z,24.00
2019-06-10T05:08:03.868Z,24.20
2019-06-10T05:10:33.679Z,24.40
2019-06-10T05:13:03.582Z,24.60
2019-06-10T05:15:34.892Z,24.70
2019-06-10T05:18:04.914Z,24.70
2019-06-10T05:20:51.059Z,24.90
2019-06-10T05:23:06.096Z,25.00
2019-06-10T05:25:35.887Z,25.10
2019-06-10T05:28:05.859Z,25.30
2019-06-10T05:30:35.686Z,25.40
2019-06-10T05:33:05.445Z,25.40
2019-06-10T05:35:35.263Z,25.10
2019-06-10T05:38:05.331Z,25.00
2019-06-10T05:40:35.223Z,24.90
2019-06-10T05:43:05.083Z,24.90
2019-06-10T05:45:35.276Z,24.80
2019-06-10T05:48:05.518Z,24.80
2019-06-10T05:50:35.300Z,24.80
2019-06-10T05:53:05.236Z,24.90
2019-06-10T05:55:35.354Z,24.80
2019-06-10T05:58:05.437Z,24.70
2019-06-10T06:00:35.658Z,24.50
2019-06-10T06:03:05.610Z,24.50
2019-06-10T06:05:37.631Z,24.50
2019-06-10T06:08:08.773Z,24.40
2019-06-10T06:10:38.606Z,24.10
2019-06-10T06:13:08.383Z,24.10
2019-06-10T06:15:38.253Z,24.20
2019-06-10T06:18:10.782Z,24.30
2019-06-10T06:20:39.688Z,24.20
2019-06-10T06:23:12.125Z,24.20
2019-06-10T06:25:44.343Z,24.30
2019-06-10T06:28:15.943Z,24.20
2019-06-10T06:30:44.302Z,24.20
2019-06-10T06:33:14.216Z,24.20
2019-06-10T06:35:46.616Z,24.20
2019-06-10T06:38:15.462Z,24.30
2019-06-10T06:40:45.364Z,24.30
2019-06-10T06:43:15.225Z,24.30
2019-06-10T06:45:45.075Z,24.20
2019-06-10T06:48:14.888Z,24.20
2019-06-10T06:51:00.407Z,24.30
2019-06-10T06:53:28.708Z,24.20
2019-06-10T06:55:47.804Z,24.10
2019-06-10T06:58:17.631Z,24.10
2019-06-10T07:01:03.756Z,24.10
2019-06-10T07:03:18.975Z,24.10
2019-06-10T07:05:52.984Z,24.20
2019-06-10T07:08:23.848Z,24.20
2019-06-10T07:10:55.763Z,24.20
2019-06-10T07:13:27.107Z,24.20
2019-06-10T07:15:56.870Z,24.30
2019-06-10T07:18:26.799Z,24.40
2019-06-10T07:20:56.592Z,24.40
2019-06-10T07:23:26.512Z,24.30
2019-06-10T07:25:56.430Z,24.10
2019-06-10T07:28:26.300Z,24.10
2019-06-10T07:30:56.039Z,24.00
2019-06-10T07:33:25.868Z,23.90
2019-06-10T07:35:56.571Z,23.80
2019-06-10T07:38:26.724Z,23.80
2019-06-10T07:40:56.891Z,23.90
2019-06-10T07:43:26.792Z,23.80
2019-06-10T07:45:56.746Z,23.70
2019-06-10T07:48:26.612Z,23.90
2019-06-10T07:50:56.501Z,24.10
2019-06-10T07:53:26.372Z,24.20
2019-06-10T07:55:56.164Z,24.30
2019-06-10T07:58:25.976Z,24.30
2019-06-10T08:00:55.808Z,24.30
2019-06-10T08:03:25.764Z,24.10
2019-06-10T08:05:55.645Z,24.10
2019-06-10T08:08:25.474Z,24.20
2019-06-10T08:10:55.315Z,24.10
2019-06-10T08:13:25.051Z,24.00
2019-06-10T08:15:54.962Z,23.90
2019-06-10T08:18:24.801Z,23.90
2019-06-10T08:20:54.699Z,23.90
2019-06-10T08:23:24.548Z,24.00
2019-06-10T08:25:57.826Z,24.10
2019-06-10T08:28:26.100Z,24.10
2019-06-10T08:30:55.910Z,24.00
2019-06-10T08:33:25.752Z,24.10
2019-06-10T08:36:00.086Z,24.20
2019-06-10T08:38:27.025Z,24.30
2019-06-10T08:40:56.990Z,24.40
2019-06-10T08:43:26.796Z,24.50
2019-06-10T08:45:56.695Z,24.50
2019-06-10T08:48:26.818Z,24.40
2019-06-10T08:50:56.651Z,24.30
2019-06-10T08:53:26.616Z,24.30
2019-06-10T08:55:56.508Z,24.50
2019-06-10T08:58:26.359Z,24.60
2019-06-10T09:00:56.404Z,24.70
2019-06-10T09:03:26.290Z,24.90
2019-06-10T09:05:58.370Z,24.90
2019-06-10T09:08:27.632Z,24.70
2019-06-10T09:10:57.484Z,24.80
2019-06-10T09:13:27.331Z,25.10
2019-06-10T09:16:10.979Z,25.30
2019-06-10T09:18:28.748Z,25.50
2019-06-10T09:20:58.691Z,25.70
2019-06-10T09:23:28.464Z,25.80
2019-06-10T09:25:58.312Z,25.80
2019-06-10T09:28:28.219Z,25.80
2019-06-10T09:30:59.609Z,25.80
2019-06-10T09:33:29.677Z,25.80
2019-06-10T09:35:59.517Z,26.10
2019-06-10T09:38:29.413Z,26.40
2019-06-10T09:41:02.972Z,26.60
2019-06-10T09:43:33.363Z,26.80
2019-06-10T09:46:03.594Z,26.70
2019-06-10T09:48:33.894Z,26.80
2019-06-10T09:51:03.896Z,26.90
2019-06-10T09:53:42.288Z,27.10
2019-06-10T09:56:05.611Z,27.10
2019-06-10T09:58:35.520Z,27.10
2019-06-10T10:01:05.794Z,27.10
2019-06-10T10:03:35.672Z,27.00
2019-06-10T10:06:14.082Z,27.00
2019-06-10T10:08:38.372Z,27.10
2019-06-10T10:11:08.271Z,27.10
2019-06-10T10:13:38.169Z,27.10
2019-06-10T10:16:08.561Z,27.10
2019-06-10T10:18:38.428Z,27.00
2019-06-10T10:21:08.453Z,27.00
2019-06-10T10:23:51.264Z,27.10
2019-06-10T10:26:12.747Z,27.10
2019-06-10T10:28:42.838Z,27.10
2019-06-10T10:31:13.262Z,27.30
2019-06-10T10:33:44.238Z,27.50
2019-06-10T10:36:14.281Z,27.50
2019-06-10T10:38:44.791Z,27.40
2019-06-10T10:41:15.161Z,27.50
2019-06-10T10:43:46.804Z,27.70
2019-06-10T10:46:16.625Z,27.90
2019-06-10T10:48:47.097Z,28.00
2019-06-10T10:51:17.627Z,28.00
2019-06-10T10:53:56.255Z,28.00
2019-06-10T10:56:18.993Z,27.90
2019-06-10T10:58:49.240Z,27.80
2019-06-10T11:01:23.177Z,27.70
2019-06-10T11:03:56.941Z,27.80
2019-06-10T11:06:23.515Z,27.70
2019-06-10T11:08:55.882Z,27.70
2019-06-10T11:11:27.216Z,27.60
2019-06-10T11:13:59.429Z,27.60
2019-06-10T11:16:29.397Z,27.60
2019-06-10T11:18:59.181Z,27.70
2019-06-10T11:21:29.304Z,27.80
2019-06-10T11:24:02.228Z,27.90
2019-06-10T11:26:32.844Z,27.90
2019-06-10T11:29:03.073Z,28.00
2019-06-10T11:31:33.148Z,28.20
2019-06-10T11:34:03.284Z,28.50
2019-06-10T11:36:33.319Z,28.60
2019-06-10T11:39:03.172Z,28.70
2019-06-10T11:41:33.012Z,28.90
2019-06-10T11:44:02.940Z,29.00
2019-06-10T11:46:33.209Z,29.10
2019-06-10T11:49:03.970Z,29.20
2019-06-10T11:51:34.051Z,29.30
2019-06-10T11:54:03.820Z,29.40
2019-06-10T11:56:33.789Z,29.20
2019-06-10T11:59:09.192Z,29.20
2019-06-10T12:01:35.235Z,29.40
2019-06-10T12:04:05.522Z,29.60
2019-06-10T12:06:35.592Z,29.70
2019-06-10T12:09:08.373Z,29.80
2019-06-10T12:11:38.328Z,29.90
2019-06-10T12:14:08.607Z,29.90
2019-06-10T12:19:09.882Z,30.20
2019-06-10T12:21:39.722Z,30.30
2019-06-10T12:24:12.461Z,30.50
2019-06-10T12:26:43.443Z,30.50
2019-06-10T12:29:12.687Z,30.60
2019-06-10T12:31:42.920Z,30.50
2019-06-10T12:34:13.067Z,30.40
2019-06-10T12:36:42.922Z,30.40
2019-06-10T12:39:15.546Z,30.30
2019-06-10T12:41:44.813Z,30.30
2019-06-10T12:44:14.929Z,30.30
2019-06-10T12:46:44.768Z,30.40
2019-06-10T12:49:18.282Z,30.60
2019-06-10T12:51:46.145Z,30.60
2019-06-10T12:54:16.114Z,30.70
2019-06-10T12:56:45.980Z,30.80
2019-06-10T12:59:15.845Z,30.80
2019-06-10T13:01:46.518Z,30.80
2019-06-10T13:04:17.080Z,30.80
2019-06-10T13:06:49.665Z,31.00
2019-06-10T13:09:20.144Z,31.20
2019-06-10T13:11:52.591Z,31.30
2019-06-10T13:14:22.048Z,31.40
2019-06-10T13:16:52.679Z,31.50
2019-06-10T13:19:23.213Z,31.30
2019-06-10T13:21:53.187Z,31.30
2019-06-10T13:24:23.035Z,31.30
2019-06-10T13:26:52.829Z,31.20
2019-06-10T13:29:24.215Z,31.30
2019-06-10T13:31:54.152Z,31.40
2019-06-10T13:34:24.038Z,31.40
2019-06-10T13:36:53.947Z,31.30
2019-06-10T13:39:26.880Z,31.40
2019-06-10T13:41:55.440Z,31.40
2019-06-10T13:44:25.262Z,31.40
2019-06-10T13:46:55.139Z,31.30
2019-06-10T13:49:25.573Z,31.40
2019-06-10T13:51:56.332Z,31.40
2019-06-10T13:54:26.403Z,31.50
2019-06-10T13:56:56.264Z,31.60
2019-06-10T13:59:26.273Z,31.70
2019-06-10T14:01:56.032Z,31.70
2019-06-10T14:04:26.009Z,31.60
2019-06-10T14:06:57.271Z,31.70
2019-06-10T14:09:27.508Z,31.80
2019-06-10T14:11:57.376Z,31.90
2019-06-10T14:14:27.134Z,32.00
2019-06-10T14:16:57.097Z,32.10
2019-06-10T14:19:27.019Z,32.10
2019-06-10T14:21:56.815Z,32.20
2019-06-10T14:24:26.733Z,32.40
2019-06-10T14:26:56.576Z,32.40
2019-06-10T14:29:26.457Z,32.40
2019-06-10T14:31:56.422Z,32.20
2019-06-10T14:34:26.227Z,32.20
2019-06-10T14:36:56.044Z,32.20
2019-06-10T14:39:25.908Z,32.20
2019-06-10T14:41:59.220Z,32.10
2019-06-10T14:44:27.423Z,32.00
2019-06-10T14:46:57.227Z,32.00
2019-06-10T14:49:26.949Z,32.00
2019-06-10T14:51:56.819Z,32.00
2019-06-10T14:54:26.663Z,31.90
2019-06-10T14:56:57.363Z,31.90
2019-06-10T14:59:27.484Z,31.90
2019-06-10T15:01:57.284Z,31.90
2019-06-10T15:04:27.173Z,31.90
2019-06-10T15:06:57.055Z,31.80
2019-06-10T15:09:26.895Z,31.90
2019-06-10T15:11:56.805Z,32.00
2019-06-10T15:14:26.608Z,32.10
2019-06-10T15:16:56.535Z,32.20
2019-06-10T15:19:28.968Z,32.30
2019-06-10T15:22:00.228Z,32.10
2019-06-10T15:24:30.111Z,32.10
2019-06-10T15:27:11.204Z,31.90
2019-06-10T15:29:32.829Z,31.70
2019-06-10T15:32:13.941Z,31.70
2019-06-10T15:34:34.597Z,31.60
2019-06-10T15:37:04.656Z,31.60
2019-06-10T15:39:34.534Z,31.50
2019-06-10T15:42:04.391Z,31.60
2019-06-10T15:44:48.764Z,31.50
2019-06-10T15:47:05.759Z,31.60
2019-06-10T15:49:35.536Z,31.60
2019-06-10T15:52:05.636Z,31.60
2019-06-10T15:54:35.575Z,31.60
2019-06-10T15:57:05.586Z,31.70
2019-06-10T15:59:35.399Z,31.60
2019-06-10T16:02:05.279Z,31.70
2019-06-10T16:04:35.421Z,31.70
2019-06-10T16:07:05.515Z,31.70
2019-06-10T16:09:35.386Z,31.70
2019-06-10T16:12:05.278Z,31.70
2019-06-10T16:14:36.983Z,31.70
2019-06-10T16:17:06.965Z,31.60
2019-06-10T16:19:36.806Z,31.50
2019-06-10T16:22:06.673Z,31.40
2019-06-10T16:24:36.520Z,31.30
2019-06-10T16:27:06.314Z,31.30
2019-06-10T16:29:36.265Z,31.20
2019-06-10T16:32:06.029Z,31.20
2019-06-10T16:34:35.928Z,31.20
2019-06-10T16:37:05.862Z,31.20
2019-06-10T16:39:35.849Z,31.20
2019-06-10T16:42:05.896Z,31.20
2019-06-10T16:44:35.863Z,31.20
2019-06-10T16:47:05.795Z,31.00
2019-06-10T16:49:35.595Z,31.00
2019-06-10T16:52:05.814Z,31.00
2019-06-10T16:54:35.595Z,30.90
2019-06-10T16:57:05.411Z,30.90
2019-06-10T16:59:35.375Z,30.80
2019-06-10T17:02:05.429Z,30.80
2019-06-10T17:04:35.215Z,30.70
2019-06-10T17:07:05.041Z,30.60
2019-06-10T17:09:34.907Z,30.50
2019-06-10T17:12:04.913Z,30.50
2019-06-10T17:14:34.748Z,30.40
2019-06-10T17:17:04.586Z,30.30
2019-06-10T17:19:34.487Z,30.30
2019-06-10T17:22:04.475Z,30.30
2019-06-10T17:24:34.434Z,30.20
2019-06-10T17:27:04.334Z,30.30
2019-06-10T17:29:34.240Z,30.30
2019-06-10T17:32:04.091Z,30.30
2019-06-10T17:34:34.147Z,30.30
2019-06-10T17:37:04.102Z,30.30
2019-06-10T17:39:34.720Z,30.10
2019-06-10T17:42:04.891Z,30.20
2019-06-10T17:44:34.728Z,30.10
2019-06-10T17:47:04.537Z,30.10
2019-06-10T17:49:34.902Z,30.00
2019-06-10T17:52:05.043Z,30.00
2019-06-10T17:54:34.969Z,29.80
2019-06-10T17:57:04.822Z,29.80
2019-06-10T17:59:35.511Z,29.80
2019-06-10T18:02:05.489Z,29.70
2019-06-10T18:04:35.416Z,29.60
2019-06-10T18:07:05.252Z,29.60
2019-06-10T18:09:37.084Z,29.50
2019-06-10T18:12:06.718Z,29.40
2019-06-10T18:14:36.732Z,29.40
2019-06-10T18:17:06.652Z,29.30
2019-06-10T18:19:37.486Z,29.30
2019-06-10T18:22:07.552Z,29.20
2019-06-10T18:24:37.337Z,29.20
2019-06-10T18:27:26.959Z,29.20
2019-06-10T18:29:56.835Z,29.10
2019-06-10T18:32:27.452Z,29.10
2019-06-10T18:34:57.402Z,29.10
2019-06-10T18:37:28.165Z,29.10
2019-06-10T18:39:58.238Z,28.90
2019-06-10T18:42:28.565Z,28.90
2019-06-10T18:44:58.410Z,28.90
2019-06-10T18:47:28.281Z,28.80
2019-06-10T18:49:58.237Z,28.70
2019-06-10T18:52:28.007Z,28.70
2019-06-10T18:54:57.867Z,28.70
2019-06-10T18:57:28.787Z,28.60
2019-06-10T18:59:58.824Z,28.60
2019-06-10T19:02:28.630Z,28.60
2019-06-10T19:04:58.467Z,28.50
2019-06-10T19:07:28.739Z,28.50
2019-06-10T19:09:58.544Z,28.50
2019-06-10T19:12:29.167Z,28.40
2019-06-10T19:14:59.243Z,28.40
2019-06-10T19:17:30.392Z,28.50
2019-06-10T19:20:01.360Z,28.40
2019-06-10T19:22:34.394Z,28.40
2019-06-10T19:25:03.860Z,28.40
2019-06-10T19:27:35.163Z,28.30
2019-06-10T19:30:05.777Z,28.30
2019-06-10T19:32:36.753Z,28.20
2019-06-10T19:35:07.763Z,28.30
2019-06-10T19:37:39.015Z,28.20
2019-06-10T19:40:09.532Z,28.20
2019-06-10T19:42:40.239Z,28.10
2019-06-10T19:45:12.523Z,28.10
2019-06-10T19:47:46.095Z,28.00
2019-06-10T19:50:16.168Z,27.90
2019-06-10T19:52:46.066Z,27.80
2019-06-10T19:55:15.896Z,27.80
2019-06-10T19:57:45.719Z,27.70
2019-06-10T20:00:16.038Z,27.70
2019-06-10T20:02:46.988Z,27.70
2019-06-10T20:05:18.871Z,27.60
2019-06-10T20:07:52.819Z,27.60
2019-06-10T20:10:20.327Z,27.60
2019-06-10T20:12:50.177Z,27.60
2019-06-10T20:15:23.859Z,27.60
2019-06-10T20:17:54.233Z,27.60
2019-06-10T20:20:24.044Z,27.60
2019-06-10T20:22:57.206Z,27.50
2019-06-10T20:25:25.369Z,27.50
2019-06-10T20:27:55.379Z,27.50
2019-06-10T20:30:29.002Z,27.50
2019-06-10T20:32:56.949Z,27.50
2019-06-10T20:35:26.893Z,27.50
2019-06-10T20:37:56.691Z,27.40
2019-06-10T20:40:26.919Z,27.40
2019-06-10T20:43:00.112Z,27.50
2019-06-10T20:45:28.260Z,27.50
2019-06-10T20:47:58.095Z,27.50
2019-06-10T20:50:27.923Z,27.50
2019-06-10T20:53:11.064Z,27.50
2019-06-10T20:55:40.439Z,27.40
2019-06-10T20:58:04.216Z,27.40
2019-06-10T21:00:37.088Z,27.30
2019-06-10T21:03:07.259Z,27.30
2019-06-10T21:05:37.323Z,27.20
2019-06-10T21:08:07.489Z,27.20
2019-06-10T21:10:39.703Z,27.20
2019-06-10T21:13:12.189Z,27.20
2019-06-10T21:15:45.663Z,27.10
2019-06-10T21:18:13.209Z,27.10
2019-06-10T21:20:46.579Z,26.90
2019-06-10T21:23:16.255Z,26.40
2019-06-10T21:25:49.447Z,26.30
2019-06-10T21:28:17.710Z,26.40
2019-06-10T21:30:52.121Z,26.30
2019-06-10T21:33:19.193Z,26.10
2019-06-10T21:35:50.155Z,26.10
2019-06-10T21:38:23.029Z,26.10
2019-06-10T21:40:54.032Z,26.00
2019-06-10T21:43:23.571Z,26.10
2019-06-10T21:45:57.443Z,26.10
2019-06-10T21:48:24.942Z,26.10
2019-06-10T21:50:56.041Z,26.10
2019-06-10T21:53:26.077Z,26.10
2019-06-10T21:55:55.970Z,26.30
2019-06-10T21:58:25.880Z,26.20
2019-06-10T22:01:11.612Z,26.30
2019-06-10T22:03:27.742Z,26.40
2019-06-10T22:05:57.607Z,26.50
2019-06-10T22:08:27.543Z,26.50
2019-06-10T22:10:57.455Z,26.60
2019-06-10T22:13:27.269Z,26.70
2019-06-10T22:15:57.284Z,26.60
2019-06-10T22:18:28.043Z,26.70
2019-06-10T22:20:57.930Z,26.70
2019-06-10T22:23:27.764Z,26.70
2019-06-10T22:25:57.771Z,26.80
2019-06-10T22:28:27.747Z,26.70
2019-06-10T22:31:15.122Z,26.60
2019-06-10T22:33:29.074Z,26.60
2019-06-10T22:35:58.862Z,26.60
2019-06-10T22:38:28.939Z,26.50
2019-06-10T22:40:59.303Z,26.50
2019-06-10T22:43:29.240Z,26.50
2019-06-10T22:45:59.907Z,26.40
2019-06-10T22:48:29.806Z,26.40
2019-06-10T22:50:59.636Z,26.50
2019-06-10T22:53:29.545Z,26.60
2019-06-10T22:55:59.355Z,26.60
2019-06-10T22:58:29.164Z,26.60
2019-06-10T23:01:00.228Z,26.60
2019-06-10T23:03:30.199Z,26.10
2019-06-10T23:06:02.474Z,25.90
2019-06-10T23:08:33.397Z,25.90
2019-06-10T23:11:03.042Z,25.90
2019-06-10T23:13:33.224Z,25.80
2019-06-10T23:16:03.009Z,25.70
2019-06-10T23:18:32.867Z,25.70
2019-06-10T23:21:04.370Z,25.50
2019-06-10T23:23:34.196Z,25.50
2019-06-10T23:26:04.099Z,25.50
2019-06-10T23:28:33.875Z,25.50
2019-06-10T23:31:05.263Z,25.50
2019-06-10T23:33:35.216Z,25.50
2019-06-10T23:36:06.012Z,25.60
2019-06-10T23:38:35.879Z,25.60
2019-06-10T23:41:05.795Z,25.80
2019-06-10T23:43:35.638Z,25.80
2019-06-10T23:46:05.488Z,25.80
2019-06-10T23:48:35.326Z,25.90
2019-06-10T23:51:05.413Z,25.90
2019-06-10T23:53:35.359Z,26.00
2019-06-10T23:56:05.325Z,26.00
2019-06-10T23:58:35.409Z,26.10
